Time;durP1;ratioP1;P1;durP2;ratioP2;P2;SDS_P1;SDS_P2;PMS_P1;PMS_P2;Temp;Humidity;BMP_temperature;BMP_pressure;BME280_temperature;BME280_humidity;BME280_pressure;Samples;Min_cycle;Max_cycle;Signal;HPM_P1;HPM_P2
2022/03/06 00:00:15;;;;;;;20.63;14.40;;;-0.40;99.90;;;;;;4991865;28;20045;-65
2022/03/06 00:02:41;;;;;;;23.92;14.20;;;-0.40;99.90;;;;;;4992092;28;21335;-65
2022/03/06 00:05:07;;;;;;;22.30;14.57;;;-0.50;99.90;;;;;;4993231;28;20054;-65
2022/03/06 00:07:32;;;;;;;21.00;14.18;;;-0.40;99.90;;;;;;4991121;28;20533;-64
2022/03/06 00:09:58;;;;;;;22.02;14.35;;;-0.40;99.90;;;;;;4992454;28;20046;-66
2022/03/06 00:12:23;;;;;;;22.63;15.18;;;-0.50;99.90;;;;;;4991081;28;20136;-64
2022/03/06 00:14:49;;;;;;;23.15;14.60;;;-0.50;99.90;;;;;;4992701;28;20046;-63
2022/03/06 00:17:15;;;;;;;21.92;14.60;;;-0.50;99.90;;;;;;4991935;28;20479;-63
2022/03/06 00:19:40;;;;;;;22.25;14.50;;;-0.50;99.90;;;;;;4991857;28;20525;-66
2022/03/06 00:22:06;;;;;;;21.88;14.60;;;-0.50;99.90;;;;;;4991974;28;20174;-65
2022/03/06 00:24:32;;;;;;;23.35;15.05;;;-0.50;99.90;;;;;;4992029;28;20053;-64
2022/03/06 00:26:57;;;;;;;21.05;14.23;;;-0.60;99.90;;;;;;4991245;28;20093;-64
2022/03/06 00:29:23;;;;;;;23.30;15.23;;;-0.60;99.90;;;;;;4975104;28;20050;-65
2022/03/06 00:31:48;;;;;;;20.98;14.85;;;-0.60;99.90;;;;;;4992910;28;20054;-63
2022/03/06 00:34:14;;;;;;;23.63;16.42;;;-0.60;99.90;;;;;;4988573;28;20042;-64
2022/03/06 00:36:40;;;;;;;22.02;15.45;;;-0.60;99.90;;;;;;4991530;28;20057;-65
2022/03/06 00:39:05;;;;;;;22.63;14.93;;;-0.70;99.90;;;;;;4976487;28;20054;-62
2022/03/06 00:41:31;;;;;;;21.13;14.50;;;-0.70;99.90;;;;;;4991370;28;20050;-67
2022/03/06 00:43:57;;;;;;;19.48;15.25;;;-0.70;99.90;;;;;;4991981;28;20126;-64
2022/03/06 00:46:22;;;;;;;23.85;15.15;;;-0.70;99.90;;;;;;4991100;28;20046;-63
2022/03/06 00:48:48;;;;;;;21.20;15.10;;;-0.70;99.90;;;;;;4980876;28;20039;-65
2022/03/06 00:51:14;;;;;;;23.38;16.02;;;-0.70;99.90;;;;;;4991634;28;20394;-65
2022/03/06 00:53:44;;;;;;;21.75;14.93;;;-0.70;99.90;;;;;;4993177;28;20364;-66
2022/03/06 00:56:09;;;;;;;20.88;14.25;;;-0.70;99.90;;;;;;4974910;28;20352;-64
2022/03/06 00:58:35;;;;;;;19.98;14.70;;;-0.60;99.90;;;;;;4991473;28;20065;-62
2022/03/06 01:01:01;;;;;;;21.73;15.02;;;-0.60;99.90;;;;;;4991377;28;20050;-64
2022/03/06 01:03:27;;;;;;;20.05;13.52;;;-0.60;99.90;;;;;;4990933;28;20129;-64
2022/03/06 01:05:53;;;;;;;21.00;14.63;;;-0.60;99.90;;;;;;4990739;28;20541;-65
2022/03/06 01:08:18;;;;;;;19.40;14.88;;;-0.60;99.90;;;;;;4991464;28;20073;-66
2022/03/06 01:10:46;;;;;;;20.60;14.43;;;-0.60;99.90;;;;;;4991302;28;20188;-64
2022/03/06 01:13:12;;;;;;;21.65;15.27;;;-0.60;99.90;;;;;;4990198;28;20050;-63
2022/03/06 01:15:38;;;;;;;19.70;14.35;;;-0.60;99.90;;;;;;4978974;28;20050;-64
2022/03/06 01:18:08;;;;;;;21.95;15.02;;;-0.60;99.90;;;;;;4967228;28;20173;-64
2022/03/06 01:20:35;;;;;;;18.80;14.43;;;-0.60;99.90;;;;;;4990559;28;20050;-63
2022/03/06 01:23:00;;;;;;;20.83;14.80;;;-0.60;99.90;;;;;;4974719;28;20038;-65
2022/03/06 01:25:26;;;;;;;23.02;15.15;;;-0.60;99.90;;;;;;4990777;28;20046;-65
2022/03/06 01:27:52;;;;;;;22.33;14.07;;;-0.60;99.90;;;;;;4991457;28;20045;-64
2022/03/06 01:30:21;;;;;;;20.15;14.32;;;-0.60;99.90;;;;;;4992342;28;20501;-64
2022/03/06 01:32:48;;;;;;;19.35;14.55;;;-0.60;99.90;;;;;;4994648;28;20082;-66
2022/03/06 01:35:13;;;;;;;20.52;12.98;;;-0.60;99.90;;;;;;4995088;28;20065;-68
2022/03/06 01:37:39;;;;;;;19.95;13.32;;;-0.50;99.90;;;;;;4993753;28;20054;-67
2022/03/06 01:40:07;;;;;;;18.65;13.90;;;-0.40;99.90;;;;;;4991266;28;20041;-64
2022/03/06 01:42:33;;;;;;;19.60;13.98;;;-0.50;99.90;;;;;;4978528;28;20061;-64
2022/03/06 01:44:59;;;;;;;21.85;14.27;;;-0.50;99.90;;;;;;4994923;28;20105;-65
2022/03/06 01:47:36;;;;;;;17.63;13.48;;;-0.40;99.90;;;;;;4994841;28;20097;-64
2022/03/06 01:50:07;;;;;;;20.05;13.73;;;-0.50;99.90;;;;;;4995781;28;20125;-64
2022/03/06 01:52:32;;;;;;;18.65;13.55;;;-0.50;99.90;;;;;;4990566;28;20043;-64
2022/03/06 01:54:58;;;;;;;20.38;14.18;;;-0.50;99.90;;;;;;4994715;28;20050;-65
2022/03/06 01:57:24;;;;;;;17.73;12.57;;;-0.40;99.90;;;;;;4995281;28;20038;-65
2022/03/06 01:59:50;;;;;;;18.73;14.15;;;-0.40;99.90;;;;;;4994685;28;20525;-65
2022/03/06 02:02:15;;;;;;;20.38;13.25;;;-0.40;99.90;;;;;;4995536;28;20491;-64
2022/03/06 02:04:41;;;;;;;19.65;12.95;;;-0.30;99.90;;;;;;4989725;28;20096;-63
2022/03/06 02:07:07;;;;;;;18.20;12.93;;;-0.30;99.90;;;;;;4994479;28;20053;-67
2022/03/06 02:09:32;;;;;;;15.90;12.07;;;-0.20;99.90;;;;;;4995508;28;20045;-67
2022/03/06 02:14:43;;;;;;;18.88;13.40;;;-0.20;99.90;;;;;;4995150;28;20046;-63
2022/03/06 02:17:08;;;;;;;15.85;11.77;;;-0.10;99.90;;;;;;4993804;28;20344;-65
2022/03/06 02:19:57;;;;;;;17.33;11.52;;;-0.10;99.90;;;;;;4991503;28;20042;-65
2022/03/06 02:22:28;;;;;;;17.52;12.23;;;-0.10;99.90;;;;;;4995527;28;20046;-64
2022/03/06 02:24:54;;;;;;;20.42;13.32;;;0.00;99.90;;;;;;4994134;28;20058;-65
2022/03/06 02:27:20;;;;;;;19.35;12.98;;;-0.10;99.90;;;;;;4993207;28;20049;-63
2022/03/06 02:29:46;;;;;;;19.35;12.48;;;0.00;99.90;;;;;;4993686;28;20038;-63
2022/03/06 02:32:16;;;;;;;17.30;12.55;;;0.00;99.90;;;;;;4993242;28;20054;-63
2022/03/06 02:34:45;;;;;;;19.35;11.98;;;0.00;99.90;;;;;;4993878;28;20386;-64
2022/03/06 02:37:12;;;;;;;16.50;12.43;;;0.00;99.90;;;;;;4991949;28;20509;-66
2022/03/06 02:39:37;;;;;;;20.42;12.50;;;0.00;99.90;;;;;;4993775;28;20054;-63
2022/03/06 02:42:04;;;;;;;19.17;12.00;;;0.00;99.90;;;;;;4992576;28;20043;-65
2022/03/06 02:44:30;;;;;;;17.20;11.68;;;0.00;99.90;;;;;;4993663;28;20113;-65
2022/03/06 02:46:57;;;;;;;18.70;11.63;;;0.00;99.90;;;;;;4993195;28;20053;-63
2022/03/06 02:49:23;;;;;;;16.02;11.38;;;0.00;99.90;;;;;;4993777;28;20057;-65
2022/03/06 02:51:49;;;;;;;17.73;11.25;;;0.00;99.90;;;;;;4993491;28;20483;-65
2022/03/06 02:54:17;;;;;;;16.92;11.77;;;0.00;99.90;;;;;;4993367;28;20054;-64
2022/03/06 02:56:44;;;;;;;15.95;10.80;;;0.00;99.90;;;;;;4977393;28;20042;-64
2022/03/06 02:59:10;;;;;;;15.25;11.45;;;0.00;99.90;;;;;;4993697;28;20408;-65
2022/03/06 03:01:40;;;;;;;15.55;10.65;;;0.00;99.90;;;;;;4993288;28;20046;-66
2022/03/06 03:04:06;;;;;;;16.20;11.25;;;0.00;99.90;;;;;;4991980;28;20055;-65
2022/03/06 03:06:32;;;;;;;15.77;11.82;;;0.00;99.90;;;;;;4993009;28;20108;-64
2022/03/06 03:08:58;;;;;;;14.70;11.82;;;0.00;99.90;;;;;;4994518;28;20046;-66
2022/03/06 03:11:24;;;;;;;15.65;11.38;;;-0.10;99.90;;;;;;4993833;28;20046;-64
2022/03/06 03:13:49;;;;;;;16.23;10.82;;;-0.10;99.90;;;;;;4992844;28;20057;-66
2022/03/06 03:16:15;;;;;;;16.35;11.15;;;-0.10;99.90;;;;;;4993392;28;20046;-64
2022/03/06 03:18:40;;;;;;;16.30;10.68;;;-0.20;99.90;;;;;;4993329;28;20046;-65
2022/03/06 03:21:06;;;;;;;13.73;11.05;;;-0.20;99.90;;;;;;4992687;28;20479;-63
2022/03/06 03:23:31;;;;;;;16.13;11.70;;;-0.30;99.90;;;;;;4993085;28;20046;-63
2022/03/06 03:25:57;;;;;;;14.13;10.73;;;-0.30;99.90;;;;;;4993279;28;20097;-66
2022/03/06 03:28:22;;;;;;;17.33;11.63;;;-0.30;99.90;;;;;;4991715;28;20054;-64
2022/03/06 03:30:48;;;;;;;16.08;10.93;;;-0.30;99.90;;;;;;4992637;28;20062;-66
2022/03/06 03:33:13;;;;;;;17.88;11.68;;;-0.30;99.90;;;;;;4992682;28;20394;-62
2022/03/06 03:35:39;;;;;;;14.30;10.73;;;-0.40;99.90;;;;;;4993333;28;20426;-65
2022/03/06 03:38:05;;;;;;;13.88;10.73;;;-0.40;99.90;;;;;;4992779;28;20541;-64
2022/03/06 03:40:31;;;;;;;14.63;11.50;;;-0.40;99.90;;;;;;4992424;28;20101;-63
2022/03/06 03:42:56;;;;;;;13.55;10.20;;;-0.40;99.90;;;;;;4979546;28;20058;-66
2022/03/06 03:45:22;;;;;;;13.15;10.98;;;-0.40;99.90;;;;;;4976456;28;20093;-63
2022/03/06 03:47:48;;;;;;;16.40;11.15;;;-0.50;99.90;;;;;;4979795;28;20046;-63
2022/03/06 03:50:13;;;;;;;18.90;11.40;;;-0.50;99.90;;;;;;4992675;28;20089;-65
2022/03/06 03:52:39;;;;;;;14.88;11.30;;;-0.50;99.90;;;;;;4992360;28;20050;-64
2022/03/06 03:55:05;;;;;;;15.95;10.93;;;-0.50;99.90;;;;;;4992369;28;20054;-63
2022/03/06 03:57:31;;;;;;;16.73;12.18;;;-0.60;99.90;;;;;;4991819;28;20038;-64
2022/03/06 03:59:56;;;;;;;13.32;10.98;;;-0.50;99.90;;;;;;4991582;28;20141;-64
2022/03/06 04:02:22;;;;;;;15.05;11.07;;;-0.60;99.90;;;;;;4992135;28;20100;-65
2022/03/06 04:04:49;;;;;;;15.63;11.10;;;-0.60;99.90;;;;;;4992101;28;20057;-65
2022/03/06 04:07:15;;;;;;;14.35;10.63;;;-0.70;99.90;;;;;;4991815;28;20138;-67
2022/03/06 04:09:40;;;;;;;15.55;10.80;;;-0.70;99.90;;;;;;4992689;28;20078;-63
2022/03/06 04:12:07;;;;;;;12.70;10.75;;;-0.70;99.90;;;;;;4991161;28;20042;-65
2022/03/06 04:14:32;;;;;;;14.25;11.05;;;-0.80;99.90;;;;;;4992198;28;20049;-65
2022/03/06 04:16:58;;;;;;;13.93;10.60;;;-0.80;99.90;;;;;;4992267;28;20048;-64
2022/03/06 04:19:23;;;;;;;16.60;11.40;;;-0.90;99.90;;;;;;4991917;28;20046;-63
2022/03/06 04:21:49;;;;;;;16.23;11.10;;;-0.90;99.90;;;;;;4991561;28;20046;-63
2022/03/06 04:24:14;;;;;;;13.57;11.38;;;-0.90;99.90;;;;;;4991970;28;20050;-62
2022/03/06 04:26:40;;;;;;;15.80;11.65;;;-0.90;99.90;;;;;;4991999;28;20047;-63
2022/03/06 04:29:05;;;;;;;14.80;11.52;;;-1.00;99.90;;;;;;4991814;28;20395;-65
2022/03/06 04:31:31;;;;;;;15.63;11.50;;;-1.00;99.90;;;;;;4991134;28;20051;-67
2022/03/06 04:33:57;;;;;;;20.10;12.18;;;-1.00;99.90;;;;;;4992089;28;20046;-64
2022/03/06 04:36:22;;;;;;;15.77;11.13;;;-1.00;99.90;;;;;;4989981;28;20054;-64
2022/03/06 04:38:48;;;;;;;14.52;10.93;;;-1.00;99.90;;;;;;4992702;28;20093;-65
2022/03/06 04:41:14;;;;;;;17.73;11.55;;;-1.00;99.90;;;;;;4991159;28;20140;-63
2022/03/06 04:43:39;;;;;;;17.13;11.13;;;-1.00;99.90;;;;;;4992041;28;20120;-65
2022/03/06 04:46:05;;;;;;;14.55;11.13;;;-1.10;99.90;;;;;;4992003;28;20129;-65
2022/03/06 04:48:31;;;;;;;14.30;11.90;;;-1.00;99.90;;;;;;4976209;28;20128;-65
2022/03/06 04:50:56;;;;;;;15.35;12.35;;;-1.00;99.90;;;;;;4991150;28;20383;-64
2022/03/06 04:53:22;;;;;;;16.73;11.25;;;-1.00;99.90;;;;;;4992161;28;20076;-64
2022/03/06 04:55:48;;;;;;;13.63;10.85;;;-1.00;99.90;;;;;;4991646;28;20038;-64
2022/03/06 04:58:13;;;;;;;15.57;11.55;;;-1.00;99.90;;;;;;4991776;28;20129;-65
2022/03/06 05:00:39;;;;;;;14.82;10.82;;;-1.00;99.90;;;;;;4990734;28;20089;-63
2022/03/06 05:03:04;;;;;;;13.45;10.82;;;-1.00;99.90;;;;;;4991118;28;20049;-64
2022/03/06 05:05:31;;;;;;;13.70;10.40;;;-1.00;99.90;;;;;;4994036;28;20575;-66
2022/03/06 05:07:56;;;;;;;11.60;10.05;;;-1.00;99.90;;;;;;4995843;28;20061;-65
2022/03/06 05:10:22;;;;;;;16.17;10.40;;;-0.90;99.90;;;;;;4979265;28;20050;-66
2022/03/06 05:12:48;;;;;;;12.85;10.27;;;-0.90;99.90;;;;;;4994909;28;20103;-65
2022/03/06 05:15:14;;;;;;;12.68;9.00;;;-0.90;99.90;;;;;;4995587;28;20054;-66
2022/03/06 05:17:40;;;;;;;13.70;9.85;;;-0.90;99.90;;;;;;4991702;28;20090;-64
2022/03/06 05:20:07;;;;;;;11.55;9.00;;;-0.90;99.90;;;;;;4994588;28;20042;-65
2022/03/06 05:22:33;;;;;;;10.32;8.50;;;-0.80;99.90;;;;;;4994661;28;20398;-65
2022/03/06 05:24:59;;;;;;;10.35;8.65;;;-0.70;99.90;;;;;;4995139;28;20126;-65
2022/03/06 05:27:28;;;;;;;11.80;8.27;;;-0.80;99.90;;;;;;4994639;28;20058;-64
2022/03/06 05:29:54;;;;;;;10.75;7.95;;;-0.80;99.90;;;;;;4995248;28;20061;-65
2022/03/06 05:32:19;;;;;;;11.10;8.10;;;-0.80;99.90;;;;;;4985659;28;20042;-65
2022/03/06 05:34:45;;;;;;;10.05;7.60;;;-0.80;99.90;;;;;;4984840;28;20104;-63
2022/03/06 05:37:10;;;;;;;10.20;8.45;;;-0.80;99.90;;;;;;4995380;28;20116;-67
2022/03/06 05:39:36;;;;;;;10.35;8.10;;;-0.80;99.90;;;;;;4995310;28;20070;-64
2022/03/06 05:42:02;;;;;;;11.90;7.68;;;-0.80;99.90;;;;;;4994920;28;20398;-65
2022/03/06 05:44:28;;;;;;;9.45;7.40;;;-0.80;99.90;;;;;;4994324;28;20057;-67
2022/03/06 05:46:53;;;;;;;10.20;7.60;;;-0.80;99.90;;;;;;4994420;28;20038;-65
2022/03/06 05:49:19;;;;;;;9.13;7.15;;;-0.70;99.90;;;;;;4996288;28;20125;-64
2022/03/06 05:51:44;;;;;;;10.10;7.35;;;-0.70;99.90;;;;;;4995176;28;20094;-65
2022/03/06 05:54:10;;;;;;;10.00;7.13;;;-0.70;99.90;;;;;;4995011;28;20509;-65
2022/03/06 05:56:37;;;;;;;10.82;7.50;;;-0.80;99.90;;;;;;4993844;28;20196;-65
2022/03/06 05:59:03;;;;;;;12.18;8.27;;;-0.80;99.90;;;;;;4993870;28;20042;-65
2022/03/06 06:01:32;;;;;;;13.43;7.55;;;-0.80;99.90;;;;;;4993823;28;20463;-63
2022/03/06 06:03:59;;;;;;;7.90;7.10;;;-0.80;99.90;;;;;;4993665;28;20042;-65
2022/03/06 06:06:25;;;;;;;7.60;6.75;;;-0.80;99.90;;;;;;4977625;28;20051;-64
2022/03/06 06:08:51;;;;;;;8.90;6.70;;;-0.80;99.90;;;;;;4978429;28;20475;-64
2022/03/06 06:11:18;;;;;;;10.48;7.10;;;-0.80;99.90;;;;;;4993283;28;20038;-65
2022/03/06 06:13:44;;;;;;;12.77;7.53;;;-0.80;99.90;;;;;;4994571;28;20489;-64
2022/03/06 06:16:09;;;;;;;8.48;6.70;;;-0.70;99.90;;;;;;4993176;28;20121;-63
2022/03/06 06:18:35;;;;;;;11.88;7.95;;;-0.70;99.90;;;;;;4993938;28;20566;-67
2022/03/06 06:21:01;;;;;;;10.10;7.05;;;-0.70;99.90;;;;;;4993757;28;20390;-64
2022/03/06 06:23:27;;;;;;;8.73;7.05;;;-0.70;99.90;;;;;;4993740;28;20046;-63
2022/03/06 06:25:52;;;;;;;9.50;7.13;;;-0.70;99.90;;;;;;4993385;28;20054;-65
2022/03/06 06:28:18;;;;;;;9.07;7.00;;;-0.60;99.90;;;;;;4993690;28;20112;-65
2022/03/06 06:30:43;;;;;;;10.13;6.40;;;-0.60;99.90;;;;;;4994205;28;20054;-64
2022/03/06 06:33:09;;;;;;;10.50;6.53;;;-0.60;99.90;;;;;;4993412;28;20086;-65
2022/03/06 06:35:35;;;;;;;8.32;6.90;;;-0.50;99.90;;;;;;4995309;28;20104;-68
2022/03/06 06:38:01;;;;;;;9.60;6.45;;;-0.50;99.90;;;;;;4990091;28;20050;-65
2022/03/06 06:40:27;;;;;;;7.85;6.47;;;-0.50;99.90;;;;;;4994387;28;20058;-66
2022/03/06 06:42:53;;;;;;;11.32;6.57;;;-0.40;99.90;;;;;;4993066;28;20482;-65
2022/03/06 06:45:19;;;;;;;8.82;6.35;;;-0.40;99.90;;;;;;4994190;28;20053;-64
2022/03/06 06:47:44;;;;;;;8.88;6.53;;;-0.30;99.90;;;;;;4992900;28;20466;-63
2022/03/06 06:50:10;;;;;;;7.10;5.65;;;-0.30;99.90;;;;;;4993955;28;20082;-67
2022/03/06 06:52:36;;;;;;;8.23;5.97;;;-0.20;99.90;;;;;;4993695;28;20351;-64
2022/03/06 06:55:03;;;;;;;9.48;5.82;;;-0.10;99.90;;;;;;4993449;28;20046;-66
2022/03/06 06:57:29;;;;;;;7.75;5.25;;;0.00;99.90;;;;;;4990784;28;20068;-64
2022/03/06 06:59:55;;;;;;;7.35;5.50;;;0.00;99.90;;;;;;4990378;28;20106;-63
2022/03/06 07:02:21;;;;;;;7.63;5.55;;;0.10;99.90;;;;;;4982837;28;20054;-65
2022/03/06 07:04:46;;;;;;;9.32;5.53;;;0.10;99.90;;;;;;4987019;28;20042;-64
2022/03/06 07:07:12;;;;;;;6.95;4.80;;;0.10;99.90;;;;;;4987356;28;20058;-66
2022/03/06 07:09:38;;;;;;;9.65;4.60;;;0.20;99.90;;;;;;4984177;28;20053;-65
2022/03/06 07:12:04;;;;;;;6.50;4.88;;;0.30;99.90;;;;;;4988764;28;20042;-64
2022/03/06 07:14:30;;;;;;;8.85;5.07;;;0.40;99.90;;;;;;4973158;28;20141;-66
2022/03/06 07:16:55;;;;;;;8.20;5.30;;;0.40;99.90;;;;;;4989166;28;20038;-64
2022/03/06 07:19:21;;;;;;;7.88;5.07;;;0.50;99.90;;;;;;4989675;28;20042;-65
2022/03/06 07:21:46;;;;;;;5.28;4.72;;;0.50;99.90;;;;;;4993496;28;20046;-67
2022/03/06 07:24:12;;;;;;;6.35;5.05;;;0.50;99.90;;;;;;4992773;28;20042;-65
2022/03/06 07:26:38;;;;;;;7.97;5.45;;;0.50;99.90;;;;;;4992177;28;20121;-64
2022/03/06 07:29:04;;;;;;;7.32;4.28;;;0.60;99.90;;;;;;4994100;28;20050;-62
2022/03/06 07:31:30;;;;;;;7.75;5.20;;;0.60;99.90;;;;;;4993051;28;20467;-64
2022/03/06 07:33:55;;;;;;;5.65;4.60;;;0.60;99.90;;;;;;4977123;28;20056;-63
2022/03/06 07:36:21;;;;;;;4.90;4.40;;;0.60;99.90;;;;;;4977185;28;20383;-63
2022/03/06 07:38:46;;;;;;;4.47;4.03;;;0.70;99.90;;;;;;4993624;28;20106;-64
2022/03/06 07:41:12;;;;;;;6.72;4.40;;;0.60;99.90;;;;;;4991459;28;20053;-62
2022/03/06 07:43:38;;;;;;;6.25;4.18;;;0.60;99.90;;;;;;4993044;28;20054;-63
2022/03/06 07:46:04;;;;;;;8.27;4.00;;;0.60;99.90;;;;;;4992655;28;20515;-63
2022/03/06 07:48:29;;;;;;;4.13;3.67;;;0.70;99.90;;;;;;4992986;28;20129;-64
2022/03/06 07:50:55;;;;;;;5.43;3.67;;;0.70;99.90;;;;;;4994387;28;20128;-64
2022/03/06 07:53:20;;;;;;;4.78;4.00;;;0.80;99.90;;;;;;4992600;28;20050;-63
2022/03/06 07:55:46;;;;;;;5.78;4.15;;;0.80;99.90;;;;;;4992585;28;20050;-64
2022/03/06 07:58:12;;;;;;;6.78;3.97;;;0.90;99.90;;;;;;4990310;28;20051;-64
2022/03/06 08:00:37;;;;;;;5.68;3.72;;;1.00;99.90;;;;;;4992567;28;20490;-63
2022/03/06 08:03:03;;;;;;;4.47;3.78;;;1.10;99.90;;;;;;4983711;28;20097;-63
2022/03/06 08:05:28;;;;;;;6.07;3.78;;;1.10;99.90;;;;;;4983844;28;20062;-65
2022/03/06 08:07:54;;;;;;;4.72;3.25;;;1.20;99.90;;;;;;4987331;28;20459;-65
2022/03/06 08:10:19;;;;;;;4.97;3.25;;;1.20;99.90;;;;;;4986377;28;20392;-64
2022/03/06 08:12:48;;;;;;;4.88;3.60;;;1.30;99.90;;;;;;4981245;28;20038;-63
2022/03/06 08:15:13;;;;;;;5.28;3.08;;;1.40;99.90;;;;;;4980028;28;20058;-64
2022/03/06 08:17:39;;;;;;;3.80;3.33;;;1.50;99.90;;;;;;4974526;28;20054;-63
2022/03/06 08:20:05;;;;;;;5.05;3.17;;;1.60;99.90;;;;;;4973156;28;20070;-64
2022/03/06 08:22:31;;;;;;;4.43;3.55;;;1.60;99.90;;;;;;4972646;28;20062;-63
2022/03/06 08:24:57;;;;;;;3.97;3.42;;;1.70;99.90;;;;;;4974167;28;20054;-63
2022/03/06 08:27:23;;;;;;;5.75;3.50;;;1.80;99.90;;;;;;4972590;28;20061;-63
2022/03/06 08:29:50;;;;;;;3.65;3.22;;;1.90;99.90;;;;;;4973338;28;20074;-63
2022/03/06 08:32:16;;;;;;;3.80;3.22;;;2.00;99.90;;;;;;4972488;28;20062;-65
2022/03/06 08:34:42;;;;;;;4.60;3.25;;;2.00;99.90;;;;;;4973409;28;20237;-63
2022/03/06 08:37:08;;;;;;;4.78;3.22;;;2.10;99.90;;;;;;4973580;28;20070;-63
2022/03/06 08:39:33;;;;;;;5.15;3.00;;;2.20;99.90;;;;;;4973673;28;20479;-63
2022/03/06 08:42:00;;;;;;;3.20;2.70;;;2.30;99.90;;;;;;4981486;28;20046;-65
2022/03/06 08:44:25;;;;;;;4.78;3.00;;;2.30;99.90;;;;;;4986910;28;20420;-64
2022/03/06 08:46:51;;;;;;;4.97;2.90;;;2.40;99.90;;;;;;4982144;28;20054;-64
2022/03/06 08:49:17;;;;;;;3.83;3.35;;;2.50;99.90;;;;;;4978153;28;20475;-64
2022/03/06 08:51:42;;;;;;;2.85;2.58;;;2.60;99.90;;;;;;4978078;28;20062;-64
2022/03/06 08:54:08;;;;;;;5.97;2.85;;;2.60;99.90;;;;;;4977057;28;20491;-66
2022/03/06 08:56:34;;;;;;;4.45;3.30;;;2.70;99.90;;;;;;4979235;28;20076;-64
2022/03/06 08:59:00;;;;;;;3.75;2.95;;;2.80;99.90;;;;;;4988778;28;20097;-66
2022/03/06 09:01:27;;;;;;;4.93;2.97;;;2.80;99.90;;;;;;4977094;28;20050;-67
2022/03/06 09:03:53;;;;;;;5.75;3.28;;;2.90;99.90;;;;;;4987433;28;20051;-66
2022/03/06 09:06:19;;;;;;;3.88;3.10;;;3.00;99.90;;;;;;4985435;28;20054;-67
2022/03/06 09:08:45;;;;;;;4.95;3.08;;;3.00;99.90;;;;;;4985669;28;20456;-64
2022/03/06 09:11:11;;;;;;;3.50;3.05;;;3.10;99.90;;;;;;4989780;28;20045;-64
2022/03/06 09:13:36;;;;;;;5.22;3.13;;;3.20;99.90;;;;;;4987558;28;20129;-63
2022/03/06 09:16:04;;;;;;;3.38;3.00;;;3.30;99.90;;;;;;4993892;28;20463;-65
2022/03/06 09:18:30;;;;;;;3.97;2.85;;;3.30;99.90;;;;;;4995224;28;20126;-66
2022/03/06 09:20:56;;;;;;;4.88;3.30;;;3.30;99.90;;;;;;4978725;28;20121;-65
2022/03/06 09:23:22;;;;;;;4.97;3.45;;;3.30;99.90;;;;;;4979354;28;20050;-64
2022/03/06 09:25:47;;;;;;;3.72;3.25;;;3.30;99.90;;;;;;4996211;28;20114;-63
2022/03/06 09:28:13;;;;;;;4.95;3.30;;;3.40;99.90;;;;;;4994949;28;20394;-64
2022/03/06 09:30:39;;;;;;;4.03;2.95;;;3.40;99.90;;;;;;4995722;28;20046;-65
2022/03/06 09:33:05;;;;;;;4.47;3.17;;;3.40;99.90;;;;;;4995077;28;20068;-64
2022/03/06 09:35:30;;;;;;;5.60;3.75;;;3.50;99.90;;;;;;4996181;28;20112;-63
2022/03/06 09:37:56;;;;;;;5.00;3.22;;;3.50;99.90;;;;;;4995349;28;20072;-65
2022/03/06 09:40:22;;;;;;;3.58;3.25;;;3.60;99.90;;;;;;4995516;28;20042;-63
2022/03/06 09:42:47;;;;;;;3.53;3.00;;;3.60;99.90;;;;;;4994477;28;20137;-64
2022/03/06 09:45:14;;;;;;;4.85;3.80;;;3.70;99.90;;;;;;4995273;28;20057;-63
2022/03/06 09:47:41;;;;;;;3.65;3.03;;;3.80;99.90;;;;;;4995186;28;20046;-64
2022/03/06 09:50:08;;;;;;;3.50;3.10;;;3.80;99.90;;;;;;4978654;28;20475;-65
2022/03/06 09:52:34;;;;;;;5.55;3.30;;;3.90;99.90;;;;;;4994813;28;20125;-63
2022/03/06 09:55:00;;;;;;;3.60;3.15;;;3.90;99.90;;;;;;4995542;28;20133;-64
2022/03/06 09:57:26;;;;;;;4.32;2.83;;;4.00;99.90;;;;;;4994157;28;20049;-64
2022/03/06 09:59:52;;;;;;;3.78;2.80;;;4.10;99.90;;;;;;4994473;28;20054;-64
2022/03/06 10:02:17;;;;;;;4.03;3.00;;;4.10;99.90;;;;;;4994900;28;20046;-65
2022/03/06 10:04:44;;;;;;;5.05;3.35;;;4.10;99.90;;;;;;4989969;28;20050;-65
2022/03/06 10:07:12;;;;;;;4.25;3.58;;;4.10;99.90;;;;;;4986588;28;20047;-65
2022/03/06 10:09:49;;;;;;;5.13;3.38;;;4.10;99.90;;;;;;4989048;28;20043;-63
2022/03/06 10:12:22;;;;;;;3.67;3.22;;;4.10;99.90;;;;;;4993984;28;20046;-64
2022/03/06 10:14:49;;;;;;;5.97;3.58;;;4.20;99.90;;;;;;4994807;28;20501;-63
2022/03/06 10:17:22;;;;;;;5.82;3.67;;;4.20;99.90;;;;;;4994906;28;20121;-65
2022/03/06 10:20:00;;;;;;;4.68;3.33;;;4.30;99.90;;;;;;4995853;28;20053;-63
2022/03/06 10:22:31;;;;;;;3.53;3.13;;;4.30;96.60;;;;;;4986798;28;20066;-63
2022/03/06 10:25:06;;;;;;;4.85;3.58;;;4.30;99.90;;;;;;4984071;28;20054;-65
2022/03/06 10:27:44;;;;;;;3.80;2.95;;;4.40;99.90;;;;;;4988501;28;20042;-66
2022/03/06 10:30:33;;;;;;;3.67;3.38;;;4.50;93.00;;;;;;4988054;28;20050;-64
2022/03/06 10:33:16;;;;;;;4.00;3.60;;;4.70;99.90;;;;;;4984866;28;20042;-64
2022/03/06 10:35:45;;;;;;;4.75;2.80;;;4.80;99.90;;;;;;4987391;28;20125;-65
2022/03/06 10:38:26;;;;;;;5.22;3.50;;;4.90;99.90;;;;;;4982284;28;20102;-65
2022/03/06 10:40:57;;;;;;;5.07;3.78;;;5.00;99.90;;;;;;4983180;28;20047;-64
2022/03/06 10:43:31;;;;;;;4.57;3.45;;;5.10;99.90;;;;;;4983434;28;20123;-63
2022/03/06 10:46:10;;;;;;;4.78;3.08;;;5.00;99.60;;;;;;4979332;28;20055;-65
2022/03/06 10:48:37;;;;;;;4.85;3.30;;;5.00;99.60;;;;;;4992274;28;20128;-65
2022/03/06 10:51:05;;;;;;;4.57;3.33;;;5.00;99.90;;;;;;4990988;28;20043;-66
2022/03/06 10:53:31;;;;;;;4.15;3.30;;;5.20;99.90;;;;;;4982752;28;20050;-65
2022/03/06 10:56:12;;;;;;;5.95;4.05;;;5.20;99.90;;;;;;4984379;28;20046;-65
2022/03/06 10:58:44;;;;;;;4.03;3.15;;;5.30;98.70;;;;;;4984969;28;20049;-64
2022/03/06 11:01:11;;;;;;;5.30;3.17;;;5.30;96.60;;;;;;4984589;28;20046;-63
2022/03/06 11:03:37;;;;;;;5.25;3.58;;;5.30;96.80;;;;;;4983642;28;20055;-63
2022/03/06 11:06:07;;;;;;;5.18;3.70;;;5.20;96.40;;;;;;4983246;28;20034;-66
2022/03/06 11:08:34;;;;;;;4.57;3.17;;;5.20;95.00;;;;;;4982066;28;20058;-66
2022/03/06 11:11:03;;;;;;;3.70;3.17;;;5.20;95.30;;;;;;4986900;28;20093;-66
2022/03/06 11:13:29;;;;;;;3.92;2.97;;;5.20;95.50;;;;;;4983546;28;20125;-65
2022/03/06 11:15:57;;;;;;;6.97;3.55;;;5.30;95.90;;;;;;4983935;28;20093;-63
2022/03/06 11:18:24;;;;;;;4.88;3.42;;;5.40;95.20;;;;;;4986193;28;20042;-64
2022/03/06 11:20:52;;;;;;;4.72;2.80;;;5.40;91.10;;;;;;4984282;28;20479;-65
2022/03/06 11:23:37;;;;;;;3.70;3.22;;;5.40;91.70;;;;;;4976816;28;20055;-65
2022/03/06 11:26:09;;;;;;;5.13;3.45;;;5.50;77.80;;;;;;4976548;28;20120;-64
2022/03/06 11:28:37;;;;;;;5.03;3.47;;;5.50;83.90;;;;;;4981907;28;20043;-64
2022/03/06 11:31:03;;;;;;;5.00;3.53;;;5.50;87.10;;;;;;4990861;28;20104;-64
2022/03/06 11:33:28;;;;;;;5.43;3.20;;;5.60;92.60;;;;;;4992119;28;20443;-67
2022/03/06 11:35:55;;;;;;;5.28;3.67;;;5.60;91.00;;;;;;4985726;28;20490;-66
2022/03/06 11:38:37;;;;;;;3.65;3.22;;;5.60;90.20;;;;;;4981520;28;20101;-67
2022/03/06 11:41:10;;;;;;;4.72;3.40;;;5.60;89.00;;;;;;4980897;28;20046;-64
2022/03/06 11:43:49;;;;;;;4.22;3.60;;;5.70;83.60;;;;;;4982916;28;20050;-65
2022/03/06 11:46:28;;;;;;;6.10;3.15;;;5.80;93.00;;;;;;4984557;28;20046;-65
2022/03/06 11:48:56;;;;;;;4.07;3.45;;;5.90;76.70;;;;;;4986977;28;20078;-66
2022/03/06 11:51:26;;;;;;;4.88;3.80;;;5.90;90.30;;;;;;4982710;28;20426;-65
2022/03/06 11:53:52;;;;;;;3.58;3.28;;;5.90;90.80;;;;;;4991980;28;20082;-65
2022/03/06 11:56:33;;;;;;;5.30;3.45;;;6.00;88.40;;;;;;4980931;28;20086;-68
2022/03/06 11:59:16;;;;;;;3.97;3.55;;;6.00;75.50;;;;;;4983673;28;20104;-66
2022/03/06 12:01:44;;;;;;;5.13;3.70;;;6.00;81.80;;;;;;5006473;28;20061;-65
2022/03/06 12:04:15;;;;;;;4.50;3.50;;;6.00;82.40;;;;;;4983679;28;20554;-65
2022/03/06 12:06:43;;;;;;;4.28;3.60;;;6.10;89.40;;;;;;4983469;28;20100;-66
2022/03/06 12:09:18;;;;;;;5.03;4.18;;;6.10;88.50;;;;;;4985350;28;20053;-66
2022/03/06 12:11:46;;;;;;;5.47;3.55;;;6.10;86.90;;;;;;4986118;28;20054;-66
2022/03/06 12:14:20;;;;;;;4.05;3.50;;;6.10;88.70;;;;;;4986718;28;20054;-68
2022/03/06 12:17:01;;;;;;;4.55;3.33;;;6.20;87.50;;;;;;4992394;28;20045;-64
2022/03/06 12:19:27;;;;;;;3.83;3.53;;;6.20;83.80;;;;;;4992162;28;20050;-65
2022/03/06 12:22:06;;;;;;;4.75;3.92;;;6.20;86.70;;;;;;4992106;28;20050;-66
2022/03/06 12:24:32;;;;;;;5.63;3.58;;;6.30;87.40;;;;;;4992270;28;20054;-67
2022/03/06 12:26:58;;;;;;;3.88;3.38;;;6.30;83.20;;;;;;4991692;28;20561;-66
2022/03/06 12:29:45;;;;;;;3.67;3.20;;;6.20;80.80;;;;;;4979926;28;20137;-68
2022/03/06 12:32:29;;;;;;;5.32;3.88;;;6.20;73.30;;;;;;4972450;28;20051;-68
2022/03/06 12:35:03;;;;;;;4.55;3.28;;;6.20;78.10;;;;;;4973855;28;20114;-67
2022/03/06 12:37:37;;;;;;;4.20;3.45;;;6.30;82.90;;;;;;4974231;28;20065;-70
2022/03/06 12:40:06;;;;;;;4.68;3.53;;;6.40;83.00;;;;;;4980524;28;20097;-66
2022/03/06 12:42:34;;;;;;;6.18;3.85;;;6.40;82.10;;;;;;4990270;28;20081;-70
2022/03/06 12:45:03;;;;;;;5.53;3.80;;;6.40;80.70;;;;;;4993184;28;20066;-65